Main page
METAR-TAF:

METAR-TAF

Airports :

Mariscal Lamar International Airport

Cuenca, Ecuador

latitude: 02-53-22S, longitude: 078-59-04W, elevation: 2532 m

Current weather observation

The report was made 30 minutes ago, at 10:00 UTC
Wind 2 kt from the East/Northeast
Temperature 13°C
Humidity 100%
Pressure 1024 hPa

METAR: SECU 011000Z AUTO 06002KT ////NDV ////// 13/13 Q1024

Time: 05:30 (10:30 UTC)


TAF: missing

Weather observations and forecasts of more than 4000 airports (METAR and TAF reports).

The available stations are represented by yellow and red dots on the map.

Hover mouse over dot to see the name of the station.

Then click to see weather observations and forecasts.

To change the map : click on the green buttons with a black cross to zoom in, on the green button with a dash to zoom out, or on the green arrows for adjacent maps.


METAR-TAF: